sensor_id;sensor_type;location;lat;lon;timestamp;P1;durP1;ratioP1;P2;durP2;ratioP2
8104;SDS011;4095;48.942;9.104;2023-07-28T00:01:51;5.37;;;4.50;;
8104;SDS011;4095;48.942;9.104;2023-07-28T00:04:17;5.93;;;4.43;;
8104;SDS011;4095;48.942;9.104;2023-07-28T00:06:42;5.27;;;4.27;;
8104;SDS011;4095;48.942;9.104;2023-07-28T00:09:08;7.33;;;4.70;;
8104;SDS011;4095;48.942;9.104;2023-07-28T00:11:33;5.83;;;4.70;;
8104;SDS011;4095;48.942;9.104;2023-07-28T00:13:59;6.07;;;5.47;;
8104;SDS011;4095;48.942;9.104;2023-07-28T00:16:25;6.30;;;5.70;;
8104;SDS011;4095;48.942;9.104;2023-07-28T00:18:50;5.57;;;5.07;;
8104;SDS011;4095;48.942;9.104;2023-07-28T00:21:16;6.30;;;5.70;;
8104;SDS011;4095;48.942;9.104;2023-07-28T00:23:41;6.20;;;5.60;;
8104;SDS011;4095;48.942;9.104;2023-07-28T00:26:07;6.50;;;5.90;;
8104;SDS011;4095;48.942;9.104;2023-07-28T00:28:33;7.03;;;5.50;;
8104;SDS011;4095;48.942;9.104;2023-07-28T00:30:59;6.50;;;5.90;;
8104;SDS011;4095;48.942;9.104;2023-07-28T00:33:24;5.73;;;5.23;;
8104;SDS011;4095;48.942;9.104;2023-07-28T00:35:50;6.33;;;5.20;;
8104;SDS011;4095;48.942;9.104;2023-07-28T00:38:15;6.67;;;5.53;;
8104;SDS011;4095;48.942;9.104;2023-07-28T00:40:42;7.77;;;5.40;;
8104;SDS011;4095;48.942;9.104;2023-07-28T00:43:08;6.63;;;5.93;;
8104;SDS011;4095;48.942;9.104;2023-07-28T00:45:33;6.20;;;5.60;;
8104;SDS011;4095;48.942;9.104;2023-07-28T00:48:00;5.90;;;5.40;;
8104;SDS011;4095;48.942;9.104;2023-07-28T00:50:26;6.13;;;5.53;;
8104;SDS011;4095;48.942;9.104;2023-07-28T00:52:52;6.20;;;5.70;;
8104;SDS011;4095;48.942;9.104;2023-07-28T00:55:19;6.67;;;5.40;;
8104;SDS011;4095;48.942;9.104;2023-07-28T00:57:47;6.53;;;4.83;;
8104;SDS011;4095;48.942;9.104;2023-07-28T01:00:12;6.70;;;6.07;;
8104;SDS011;4095;48.942;9.104;2023-07-28T01:02:38;6.87;;;5.70;;
8104;SDS011;4095;48.942;9.104;2023-07-28T01:05:04;6.07;;;5.50;;
8104;SDS011;4095;48.942;9.104;2023-07-28T01:10:07;6.13;;;5.00;;
8104;SDS011;4095;48.942;9.104;2023-07-28T01:12:36;7.10;;;4.97;;
8104;SDS011;4095;48.942;9.104;2023-07-28T01:15:02;5.90;;;5.30;;
8104;SDS011;4095;48.942;9.104;2023-07-28T01:17:28;6.23;;;5.07;;
8104;SDS011;4095;48.942;9.104;2023-07-28T01:19:54;6.20;;;5.60;;
8104;SDS011;4095;48.942;9.104;2023-07-28T01:27:54;5.23;;;4.73;;
8104;SDS011;4095;48.942;9.104;2023-07-28T01:30:21;5.30;;;4.80;;
8104;SDS011;4095;48.942;9.104;2023-07-28T01:32:50;6.90;;;5.40;;
8104;SDS011;4095;48.942;9.104;2023-07-28T01:35:18;5.80;;;4.60;;
8104;SDS011;4095;48.942;9.104;2023-07-28T01:37:44;5.47;;;4.67;;
8104;SDS011;4095;48.942;9.104;2023-07-28T01:40:10;5.40;;;4.90;;
8104;SDS011;4095;48.942;9.104;2023-07-28T01:42:36;5.43;;;4.87;;
8104;SDS011;4095;48.942;9.104;2023-07-28T01:45:02;6.00;;;5.07;;
8104;SDS011;4095;48.942;9.104;2023-07-28T01:47:28;5.10;;;4.60;;
8104;SDS011;4095;48.942;9.104;2023-07-28T01:49:54;4.83;;;4.33;;
8104;SDS011;4095;48.942;9.104;2023-07-28T01:52:20;5.80;;;5.17;;
8104;SDS011;4095;48.942;9.104;2023-07-28T01:54:46;5.30;;;4.80;;
8104;SDS011;4095;48.942;9.104;2023-07-28T01:57:12;5.20;;;4.67;;
8104;SDS011;4095;48.942;9.104;2023-07-28T01:59:37;5.10;;;4.60;;
8104;SDS011;4095;48.942;9.104;2023-07-28T02:02:03;4.70;;;4.30;;
8104;SDS011;4095;48.942;9.104;2023-07-28T02:04:29;5.37;;;4.87;;
8104;SDS011;4095;48.942;9.104;2023-07-28T02:06:54;7.60;;;5.00;;
8104;SDS011;4095;48.942;9.104;2023-07-28T02:09:20;5.17;;;4.73;;
8104;SDS011;4095;48.942;9.104;2023-07-28T02:11:45;6.10;;;4.70;;
8104;SDS011;4095;48.942;9.104;2023-07-28T02:14:11;4.93;;;4.47;;
8104;SDS011;4095;48.942;9.104;2023-07-28T02:16:36;4.73;;;4.33;;
8104;SDS011;4095;48.942;9.104;2023-07-28T02:19:02;4.70;;;4.30;;
8104;SDS011;4095;48.942;9.104;2023-07-28T02:21:27;5.30;;;4.40;;
8104;SDS011;4095;48.942;9.104;2023-07-28T02:23:53;5.23;;;4.10;;
8104;SDS011;4095;48.942;9.104;2023-07-28T02:26:19;6.37;;;4.70;;
8104;SDS011;4095;48.942;9.104;2023-07-28T02:28:44;5.00;;;4.50;;
8104;SDS011;4095;48.942;9.104;2023-07-28T02:31:10;5.17;;;4.30;;
8104;SDS011;4095;48.942;9.104;2023-07-28T02:33:35;7.07;;;4.70;;
8104;SDS011;4095;48.942;9.104;2023-07-28T02:36:02;5.87;;;4.83;;
8104;SDS011;4095;48.942;9.104;2023-07-28T02:38:29;5.40;;;4.30;;
8104;SDS011;4095;48.942;9.104;2023-07-28T02:40:54;5.20;;;4.30;;
8104;SDS011;4095;48.942;9.104;2023-07-28T02:43:20;5.03;;;4.20;;
8104;SDS011;4095;48.942;9.104;2023-07-28T02:45:53;5.30;;;4.40;;
8104;SDS011;4095;48.942;9.104;2023-07-28T02:48:19;4.70;;;4.20;;
8104;SDS011;4095;48.942;9.104;2023-07-28T02:50:46;6.83;;;4.23;;
8104;SDS011;4095;48.942;9.104;2023-07-28T02:53:12;4.50;;;4.10;;
8104;SDS011;4095;48.942;9.104;2023-07-28T02:55:42;5.93;;;4.27;;
8104;SDS011;4095;48.942;9.104;2023-07-28T02:58:08;4.60;;;4.20;;
8104;SDS011;4095;48.942;9.104;2023-07-28T03:00:36;5.47;;;4.43;;
8104;SDS011;4095;48.942;9.104;2023-07-28T03:03:03;4.93;;;4.33;;
8104;SDS011;4095;48.942;9.104;2023-07-28T03:05:30;4.13;;;3.73;;
8104;SDS011;4095;48.942;9.104;2023-07-28T03:07:56;7.23;;;4.40;;
8104;SDS011;4095;48.942;9.104;2023-07-28T03:10:22;6.20;;;4.47;;
8104;SDS011;4095;48.942;9.104;2023-07-28T03:12:47;4.43;;;4.03;;
8104;SDS011;4095;48.942;9.104;2023-07-28T03:15:13;4.47;;;3.87;;
8104;SDS011;4095;48.942;9.104;2023-07-28T03:17:38;7.60;;;4.20;;
8104;SDS011;4095;48.942;9.104;2023-07-28T03:20:04;5.00;;;4.10;;
8104;SDS011;4095;48.942;9.104;2023-07-28T03:22:31;4.97;;;4.43;;
8104;SDS011;4095;48.942;9.104;2023-07-28T03:24:56;4.73;;;4.33;;
8104;SDS011;4095;48.942;9.104;2023-07-28T03:27:22;4.47;;;4.07;;
8104;SDS011;4095;48.942;9.104;2023-07-28T03:29:48;4.20;;;3.80;;
8104;SDS011;4095;48.942;9.104;2023-07-28T03:32:13;4.43;;;3.80;;
8104;SDS011;4095;48.942;9.104;2023-07-28T03:34:39;6.47;;;4.00;;
8104;SDS011;4095;48.942;9.104;2023-07-28T03:37:05;4.33;;;3.83;;
8104;SDS011;4095;48.942;9.104;2023-07-28T03:39:30;4.97;;;4.00;;
8104;SDS011;4095;48.942;9.104;2023-07-28T03:41:56;4.30;;;3.90;;
8104;SDS011;4095;48.942;9.104;2023-07-28T03:44:22;4.93;;;3.73;;
8104;SDS011;4095;48.942;9.104;2023-07-28T03:46:48;5.00;;;4.50;;
8104;SDS011;4095;48.942;9.104;2023-07-28T03:49:14;4.80;;;4.30;;
8104;SDS011;4095;48.942;9.104;2023-07-28T03:51:39;5.00;;;4.20;;
8104;SDS011;4095;48.942;9.104;2023-07-28T03:54:05;4.97;;;4.03;;
8104;SDS011;4095;48.942;9.104;2023-07-28T03:56:31;5.20;;;4.70;;
8104;SDS011;4095;48.942;9.104;2023-07-28T03:58:56;4.63;;;4.23;;
8104;SDS011;4095;48.942;9.104;2023-07-28T04:01:22;4.50;;;4.10;;
8104;SDS011;4095;48.942;9.104;2023-07-28T04:03:47;4.47;;;4.00;;
8104;SDS011;4095;48.942;9.104;2023-07-28T04:06:13;4.87;;;4.10;;
8104;SDS011;4095;48.942;9.104;2023-07-28T04:08:41;5.27;;;4.03;;
8104;SDS011;4095;48.942;9.104;2023-07-28T04:11:07;4.30;;;3.90;;
8104;SDS011;4095;48.942;9.104;2023-07-28T04:13:33;4.50;;;3.70;;
8104;SDS011;4095;48.942;9.104;2023-07-28T04:15:59;4.53;;;4.13;;
8104;SDS011;4095;48.942;9.104;2023-07-28T04:18:25;4.63;;;4.23;;
8104;SDS011;4095;48.942;9.104;2023-07-28T04:20:51;4.20;;;3.80;;
8104;SDS011;4095;48.942;9.104;2023-07-28T04:23:16;5.67;;;4.50;;
8104;SDS011;4095;48.942;9.104;2023-07-28T04:25:42;6.20;;;4.20;;
8104;SDS011;4095;48.942;9.104;2023-07-28T04:28:08;4.33;;;3.93;;
8104;SDS011;4095;48.942;9.104;2023-07-28T04:30:34;5.67;;;3.97;;
8104;SDS011;4095;48.942;9.104;2023-07-28T04:32:59;4.47;;;4.07;;
8104;SDS011;4095;48.942;9.104;2023-07-28T04:35:25;4.33;;;3.87;;
8104;SDS011;4095;48.942;9.104;2023-07-28T04:37:50;4.43;;;4.03;;
8104;SDS011;4095;48.942;9.104;2023-07-28T04:40:16;4.90;;;4.10;;
8104;SDS011;4095;48.942;9.104;2023-07-28T04:42:42;4.53;;;4.13;;
8104;SDS011;4095;48.942;9.104;2023-07-28T04:45:07;4.73;;;4.33;;
8104;SDS011;4095;48.942;9.104;2023-07-28T04:47:33;4.63;;;4.23;;
8104;SDS011;4095;48.942;9.104;2023-07-28T04:49:59;5.70;;;4.13;;
8104;SDS011;4095;48.942;9.104;2023-07-28T04:52:25;4.60;;;4.10;;
8104;SDS011;4095;48.942;9.104;2023-07-28T04:54:50;6.13;;;4.20;;
8104;SDS011;4095;48.942;9.104;2023-07-28T04:57:16;6.10;;;4.63;;
8104;SDS011;4095;48.942;9.104;2023-07-28T04:59:43;4.80;;;4.30;;
8104;SDS011;4095;48.942;9.104;2023-07-28T05:02:08;5.90;;;4.67;;
8104;SDS011;4095;48.942;9.104;2023-07-28T05:04:34;4.70;;;4.20;;
8104;SDS011;4095;48.942;9.104;2023-07-28T05:07:01;5.43;;;4.23;;
8104;SDS011;4095;48.942;9.104;2023-07-28T05:09:27;4.57;;;4.17;;
8104;SDS011;4095;48.942;9.104;2023-07-28T05:11:54;4.53;;;4.13;;
8104;SDS011;4095;48.942;9.104;2023-07-28T05:14:19;5.00;;;4.40;;
8104;SDS011;4095;48.942;9.104;2023-07-28T05:16:45;6.07;;;4.30;;
8104;SDS011;4095;48.942;9.104;2023-07-28T05:19:12;5.07;;;4.13;;
8104;SDS011;4095;48.942;9.104;2023-07-28T05:21:38;4.67;;;3.90;;
8104;SDS011;4095;48.942;9.104;2023-07-28T05:24:04;4.93;;;4.03;;
8104;SDS011;4095;48.942;9.104;2023-07-28T05:26:29;8.50;;;4.40;;
8104;SDS011;4095;48.942;9.104;2023-07-28T05:28:55;5.97;;;4.33;;
8104;SDS011;4095;48.942;9.104;2023-07-28T05:31:21;6.43;;;4.33;;
8104;SDS011;4095;48.942;9.104;2023-07-28T05:33:46;5.23;;;4.83;;
8104;SDS011;4095;48.942;9.104;2023-07-28T05:36:12;4.73;;;4.30;;
8104;SDS011;4095;48.942;9.104;2023-07-28T05:38:37;4.50;;;4.10;;
8104;SDS011;4095;48.942;9.104;2023-07-28T05:41:03;5.53;;;4.33;;
8104;SDS011;4095;48.942;9.104;2023-07-28T05:43:29;4.90;;;4.17;;
8104;SDS011;4095;48.942;9.104;2023-07-28T05:45:56;5.20;;;4.30;;
8104;SDS011;4095;48.942;9.104;2023-07-28T05:48:22;6.27;;;4.50;;
8104;SDS011;4095;48.942;9.104;2023-07-28T05:50:48;4.67;;;4.13;;
8104;SDS011;4095;48.942;9.104;2023-07-28T05:53:13;4.60;;;4.17;;
8104;SDS011;4095;48.942;9.104;2023-07-28T05:55:39;4.83;;;4.43;;
8104;SDS011;4095;48.942;9.104;2023-07-28T05:58:05;4.70;;;4.20;;
8104;SDS011;4095;48.942;9.104;2023-07-28T06:00:31;6.23;;;4.40;;
8104;SDS011;4095;48.942;9.104;2023-07-28T06:02:56;6.10;;;4.50;;
8104;SDS011;4095;48.942;9.104;2023-07-28T06:05:23;6.43;;;4.30;;
8104;SDS011;4095;48.942;9.104;2023-07-28T06:07:49;4.33;;;3.93;;
8104;SDS011;4095;48.942;9.104;2023-07-28T06:10:14;6.23;;;4.10;;
8104;SDS011;4095;48.942;9.104;2023-07-28T06:12:40;4.40;;;4.00;;
8104;SDS011;4095;48.942;9.104;2023-07-28T06:15:06;4.60;;;3.83;;
8104;SDS011;4095;48.942;9.104;2023-07-28T06:17:32;5.30;;;4.30;;
8104;SDS011;4095;48.942;9.104;2023-07-28T06:19:58;4.23;;;3.83;;
8104;SDS011;4095;48.942;9.104;2023-07-28T06:22:23;4.50;;;4.10;;
8104;SDS011;4095;48.942;9.104;2023-07-28T06:24:49;5.03;;;4.53;;
8104;SDS011;4095;48.942;9.104;2023-07-28T06:27:15;5.90;;;4.43;;
8104;SDS011;4095;48.942;9.104;2023-07-28T06:29:41;4.93;;;4.30;;
8104;SDS011;4095;48.942;9.104;2023-07-28T06:32:06;5.47;;;4.27;;
8104;SDS011;4095;48.942;9.104;2023-07-28T06:34:32;4.40;;;4.00;;
8104;SDS011;4095;48.942;9.104;2023-07-28T06:36:58;4.10;;;3.80;;
8104;SDS011;4095;48.942;9.104;2023-07-28T06:39:24;5.23;;;3.80;;
8104;SDS011;4095;48.942;9.104;2023-07-28T06:41:49;5.23;;;3.63;;
8104;SDS011;4095;48.942;9.104;2023-07-28T06:44:15;6.50;;;4.37;;
8104;SDS011;4095;48.942;9.104;2023-07-28T06:46:41;4.57;;;4.20;;
8104;SDS011;4095;48.942;9.104;2023-07-28T06:49:07;4.37;;;4.07;;
8104;SDS011;4095;48.942;9.104;2023-07-28T06:51:32;4.37;;;3.97;;
8104;SDS011;4095;48.942;9.104;2023-07-28T06:53:58;3.87;;;3.57;;
8104;SDS011;4095;48.942;9.104;2023-07-28T06:56:24;4.10;;;3.70;;
8104;SDS011;4095;48.942;9.104;2023-07-28T06:58:50;4.13;;;3.67;;
8104;SDS011;4095;48.942;9.104;2023-07-28T07:01:16;4.07;;;3.60;;
8104;SDS011;4095;48.942;9.104;2023-07-28T07:03:42;3.60;;;3.30;;
8104;SDS011;4095;48.942;9.104;2023-07-28T07:06:08;3.60;;;3.30;;
8104;SDS011;4095;48.942;9.104;2023-07-28T07:08:34;4.10;;;3.30;;
8104;SDS011;4095;48.942;9.104;2023-07-28T07:10:59;3.03;;;2.83;;
8104;SDS011;4095;48.942;9.104;2023-07-28T07:13:25;2.87;;;2.67;;
8104;SDS011;4095;48.942;9.104;2023-07-28T07:15:51;2.53;;;2.33;;
8104;SDS011;4095;48.942;9.104;2023-07-28T07:18:16;3.23;;;2.40;;
8104;SDS011;4095;48.942;9.104;2023-07-28T07:20:42;2.43;;;2.23;;
8104;SDS011;4095;48.942;9.104;2023-07-28T07:23:08;2.10;;;1.90;;
8104;SDS011;4095;48.942;9.104;2023-07-28T07:25:35;1.87;;;1.77;;
8104;SDS011;4095;48.942;9.104;2023-07-28T07:28:00;2.70;;;2.03;;
8104;SDS011;4095;48.942;9.104;2023-07-28T07:30:26;2.00;;;1.80;;
8104;SDS011;4095;48.942;9.104;2023-07-28T07:32:51;1.90;;;1.80;;
8104;SDS011;4095;48.942;9.104;2023-07-28T07:35:17;2.00;;;1.80;;
8104;SDS011;4095;48.942;9.104;2023-07-28T07:37:43;2.20;;;1.83;;
8104;SDS011;4095;48.942;9.104;2023-07-28T07:40:08;3.97;;;1.60;;
8104;SDS011;4095;48.942;9.104;2023-07-28T07:42:41;1.90;;;1.70;;
8104;SDS011;4095;48.942;9.104;2023-07-28T07:45:08;1.90;;;1.80;;
8104;SDS011;4095;48.942;9.104;2023-07-28T07:47:36;2.43;;;1.67;;
8104;SDS011;4095;48.942;9.104;2023-07-28T07:50:03;2.20;;;1.70;;
8104;SDS011;4095;48.942;9.104;2023-07-28T07:52:30;2.37;;;2.00;;
8104;SDS011;4095;48.942;9.104;2023-07-28T07:54:55;2.00;;;1.80;;
8104;SDS011;4095;48.942;9.104;2023-07-28T07:57:21;1.60;;;1.50;;
8104;SDS011;4095;48.942;9.104;2023-07-28T07:59:46;2.40;;;1.60;;
8104;SDS011;4095;48.942;9.104;2023-07-28T08:02:12;3.87;;;1.70;;
8104;SDS011;4095;48.942;9.104;2023-07-28T08:04:37;2.37;;;1.67;;
8104;SDS011;4095;48.942;9.104;2023-07-28T08:07:03;2.10;;;1.90;;
8104;SDS011;4095;48.942;9.104;2023-07-28T08:09:30;1.97;;;1.70;;
8104;SDS011;4095;48.942;9.104;2023-07-28T08:11:55;1.63;;;1.50;;
8104;SDS011;4095;48.942;9.104;2023-07-28T08:14:21;1.90;;;1.80;;
8104;SDS011;4095;48.942;9.104;2023-07-28T08:16:47;1.83;;;1.73;;
8104;SDS011;4095;48.942;9.104;2023-07-28T08:19:13;1.90;;;1.80;;
8104;SDS011;4095;48.942;9.104;2023-07-28T08:21:38;2.33;;;2.13;;
8104;SDS011;4095;48.942;9.104;2023-07-28T08:24:04;2.23;;;2.00;;
8104;SDS011;4095;48.942;9.104;2023-07-28T08:26:30;3.33;;;2.00;;
8104;SDS011;4095;48.942;9.104;2023-07-28T08:28:56;2.13;;;1.80;;
8104;SDS011;4095;48.942;9.104;2023-07-28T08:31:21;2.73;;;2.20;;
8104;SDS011;4095;48.942;9.104;2023-07-28T08:33:47;2.17;;;1.97;;
8104;SDS011;4095;48.942;9.104;2023-07-28T08:36:12;2.57;;;2.00;;
8104;SDS011;4095;48.942;9.104;2023-07-28T08:38:38;2.20;;;2.00;;
8104;SDS011;4095;48.942;9.104;2023-07-28T08:41:04;2.20;;;2.00;;
8104;SDS011;4095;48.942;9.104;2023-07-28T08:43:30;2.20;;;2.00;;
8104;SDS011;4095;48.942;9.104;2023-07-28T08:45:56;3.77;;;1.80;;
8104;SDS011;4095;48.942;9.104;2023-07-28T08:48:22;2.20;;;2.00;;
8104;SDS011;4095;48.942;9.104;2023-07-28T08:50:52;2.20;;;2.00;;
8104;SDS011;4095;48.942;9.104;2023-07-28T08:53:18;2.00;;;1.90;;
8104;SDS011;4095;48.942;9.104;2023-07-28T08:55:43;2.10;;;1.90;;
8104;SDS011;4095;48.942;9.104;2023-07-28T08:58:19;1.90;;;1.73;;
8104;SDS011;4095;48.942;9.104;2023-07-28T09:00:49;1.67;;;1.57;;
8104;SDS011;4095;48.942;9.104;2023-07-28T09:03:16;2.90;;;1.63;;
8104;SDS011;4095;48.942;9.104;2023-07-28T09:05:43;1.70;;;1.60;;
8104;SDS011;4095;48.942;9.104;2023-07-28T09:08:11;2.10;;;1.90;;
8104;SDS011;4095;48.942;9.104;2023-07-28T09:13:13;2.20;;;2.00;;
8104;SDS011;4095;48.942;9.104;2023-07-28T09:15:40;4.05;;;1.90;;
8104;SDS011;4095;48.942;9.104;2023-07-28T09:18:10;2.13;;;1.93;;
8104;SDS011;4095;48.942;9.104;2023-07-28T09:20:40;2.33;;;2.07;;
8104;SDS011;4095;48.942;9.104;2023-07-28T09:23:07;2.23;;;2.03;;
8104;SDS011;4095;48.942;9.104;2023-07-28T09:25:33;2.83;;;2.00;;
8104;SDS011;4095;48.942;9.104;2023-07-28T09:28:03;2.13;;;1.80;;
8104;SDS011;4095;48.942;9.104;2023-07-28T09:30:43;2.13;;;1.70;;
8104;SDS011;4095;48.942;9.104;2023-07-28T09:33:14;2.08;;;1.45;;
8104;SDS011;4095;48.942;9.104;2023-07-28T09:35:54;1.65;;;1.50;;
8104;SDS011;4095;48.942;9.104;2023-07-28T09:38:19;1.50;;;1.40;;
8104;SDS011;4095;48.942;9.104;2023-07-28T09:40:46;2.53;;;1.75;;
8104;SDS011;4095;48.942;9.104;2023-07-28T09:43:13;2.83;;;1.80;;
8104;SDS011;4095;48.942;9.104;2023-07-28T09:45:39;2.45;;;1.73;;
8104;SDS011;4095;48.942;9.104;2023-07-28T09:48:08;1.77;;;1.60;;
8104;SDS011;4095;48.942;9.104;2023-07-28T09:50:36;2.53;;;1.50;;
8104;SDS011;4095;48.942;9.104;2023-07-28T09:53:03;2.78;;;1.60;;
8104;SDS011;4095;48.942;9.104;2023-07-28T09:55:29;2.13;;;1.90;;
8104;SDS011;4095;48.942;9.104;2023-07-28T09:57:56;1.48;;;1.38;;
8104;SDS011;4095;48.942;9.104;2023-07-28T10:00:24;1.50;;;1.40;;
8104;SDS011;4095;48.942;9.104;2023-07-28T10:02:50;1.70;;;1.60;;
8104;SDS011;4095;48.942;9.104;2023-07-28T10:05:17;2.40;;;1.70;;
8104;SDS011;4095;48.942;9.104;2023-07-28T10:07:44;2.17;;;1.80;;
8104;SDS011;4095;48.942;9.104;2023-07-28T10:10:11;1.88;;;1.67;;
8104;SDS011;4095;48.942;9.104;2023-07-28T10:12:41;2.05;;;1.85;;
8104;SDS011;4095;48.942;9.104;2023-07-28T10:15:15;1.70;;;1.60;;
8104;SDS011;4095;48.942;9.104;2023-07-28T10:17:49;2.30;;;1.70;;
8104;SDS011;4095;48.942;9.104;2023-07-28T10:20:31;1.67;;;1.58;;
8104;SDS011;4095;48.942;9.104;2023-07-28T10:23:12;1.70;;;1.58;;
8104;SDS011;4095;48.942;9.104;2023-07-28T10:25:40;1.30;;;1.20;;
8104;SDS011;4095;48.942;9.104;2023-07-28T10:28:41;1.70;;;1.23;;
8104;SDS011;4095;48.942;9.104;2023-07-28T10:31:06;1.70;;;1.60;;
8104;SDS011;4095;48.942;9.104;2023-07-28T10:33:40;2.60;;;1.60;;
8104;SDS011;4095;48.942;9.104;2023-07-28T10:36:32;1.60;;;1.50;;
8104;SDS011;4095;48.942;9.104;2023-07-28T10:39:28;1.63;;;1.52;;
8104;SDS011;4095;48.942;9.104;2023-07-28T10:42:03;1.70;;;1.60;;
8104;SDS011;4095;48.942;9.104;2023-07-28T10:44:30;1.40;;;1.30;;
8104;SDS011;4095;48.942;9.104;2023-07-28T10:46:57;1.40;;;1.30;;
8104;SDS011;4095;48.942;9.104;2023-07-28T10:49:26;1.88;;;1.42;;
8104;SDS011;4095;48.942;9.104;2023-07-28T10:51:53;1.52;;;1.42;;
8104;SDS011;4095;48.942;9.104;2023-07-28T10:54:19;1.38;;;1.20;;
8104;SDS011;4095;48.942;9.104;2023-07-28T10:56:47;2.63;;;1.50;;
8104;SDS011;4095;48.942;9.104;2023-07-28T10:59:13;1.67;;;1.38;;
8104;SDS011;4095;48.942;9.104;2023-07-28T11:01:40;1.42;;;1.30;;
8104;SDS011;4095;48.942;9.104;2023-07-28T11:06:43;1.30;;;1.20;;
8104;SDS011;4095;48.942;9.104;2023-07-28T11:09:14;1.38;;;1.20;;
8104;SDS011;4095;48.942;9.104;2023-07-28T11:11:44;2.28;;;1.38;;
8104;SDS011;4095;48.942;9.104;2023-07-28T11:14:11;1.40;;;1.30;;
8104;SDS011;4095;48.942;9.104;2023-07-28T11:16:37;1.83;;;1.52;;
8104;SDS011;4095;48.942;9.104;2023-07-28T11:19:07;1.38;;;1.27;;
8104;SDS011;4095;48.942;9.104;2023-07-28T11:21:39;1.70;;;1.60;;
8104;SDS011;4095;48.942;9.104;2023-07-28T11:24:09;1.25;;;1.10;;
8104;SDS011;4095;48.942;9.104;2023-07-28T11:26:35;1.73;;;1.20;;
8104;SDS011;4095;48.942;9.104;2023-07-28T11:29:02;1.88;;;1.55;;
8104;SDS011;4095;48.942;9.104;2023-07-28T11:31:29;4.60;;;1.50;;
8104;SDS011;4095;48.942;9.104;2023-07-28T11:33:54;4.85;;;1.75;;
8104;SDS011;4095;48.942;9.104;2023-07-28T11:36:24;1.98;;;1.75;;
8104;SDS011;4095;48.942;9.104;2023-07-28T11:38:51;1.63;;;1.52;;
8104;SDS011;4095;48.942;9.104;2023-07-28T11:41:18;1.60;;;1.50;;
8104;SDS011;4095;48.942;9.104;2023-07-28T11:43:44;1.65;;;1.52;;
8104;SDS011;4095;48.942;9.104;2023-07-28T11:51:50;2.30;;;2.00;;
8104;SDS011;4095;48.942;9.104;2023-07-28T11:54:20;3.55;;;1.83;;
8104;SDS011;4095;48.942;9.104;2023-07-28T11:56:48;1.75;;;1.65;;
8104;SDS011;4095;48.942;9.104;2023-07-28T11:59:14;3.20;;;2.00;;
8104;SDS011;4095;48.942;9.104;2023-07-28T12:01:51;2.00;;;1.80;;
8104;SDS011;4095;48.942;9.104;2023-07-28T12:04:25;2.50;;;2.00;;
8104;SDS011;4095;48.942;9.104;2023-07-28T12:12:17;2.53;;;2.10;;
8104;SDS011;4095;48.942;9.104;2023-07-28T12:14:47;2.33;;;1.90;;
8104;SDS011;4095;48.942;9.104;2023-07-28T12:17:14;3.00;;;1.90;;
8104;SDS011;4095;48.942;9.104;2023-07-28T12:19:59;2.53;;;1.95;;
8104;SDS011;4095;48.942;9.104;2023-07-28T12:22:36;2.78;;;2.10;;
8104;SDS011;4095;48.942;9.104;2023-07-28T12:25:03;2.30;;;2.05;;
8104;SDS011;4095;48.942;9.104;2023-07-28T12:27:29;2.53;;;2.00;;
8104;SDS011;4095;48.942;9.104;2023-07-28T12:29:56;3.15;;;1.83;;
8104;SDS011;4095;48.942;9.104;2023-07-28T12:32:21;3.60;;;2.50;;
8104;SDS011;4095;48.942;9.104;2023-07-28T12:34:48;2.78;;;2.58;;
8104;SDS011;4095;48.942;9.104;2023-07-28T12:37:14;4.05;;;2.92;;
8104;SDS011;4095;48.942;9.104;2023-07-28T12:39:41;4.45;;;2.78;;
8104;SDS011;4095;48.942;9.104;2023-07-28T12:42:07;3.58;;;2.72;;
8104;SDS011;4095;48.942;9.104;2023-07-28T12:44:34;3.30;;;2.95;;
8104;SDS011;4095;48.942;9.104;2023-07-28T12:47:00;4.55;;;2.90;;
8104;SDS011;4095;48.942;9.104;2023-07-28T12:49:26;3.40;;;3.10;;
8104;SDS011;4095;48.942;9.104;2023-07-28T12:51:54;4.00;;;2.90;;
8104;SDS011;4095;48.942;9.104;2023-07-28T12:54:24;3.10;;;2.78;;
8104;SDS011;4095;48.942;9.104;2023-07-28T12:56:50;4.20;;;2.88;;
8104;SDS011;4095;48.942;9.104;2023-07-28T12:59:16;3.65;;;2.90;;
8104;SDS011;4095;48.942;9.104;2023-07-28T13:01:42;3.03;;;2.72;;
8104;SDS011;4095;48.942;9.104;2023-07-28T13:04:07;3.38;;;2.70;;
8104;SDS011;4095;48.942;9.104;2023-07-28T13:06:33;4.10;;;3.05;;
8104;SDS011;4095;48.942;9.104;2023-07-28T13:08:59;3.30;;;3.00;;
8104;SDS011;4095;48.942;9.104;2023-07-28T13:11:25;3.40;;;3.10;;
8104;SDS011;4095;48.942;9.104;2023-07-28T13:13:50;3.10;;;2.80;;
8104;SDS011;4095;48.942;9.104;2023-07-28T13:16:16;3.33;;;2.97;;
8104;SDS011;4095;48.942;9.104;2023-07-28T13:18:42;3.88;;;3.00;;
8104;SDS011;4095;48.942;9.104;2023-07-28T13:21:08;3.33;;;3.03;;
8104;SDS011;4095;48.942;9.104;2023-07-28T13:23:36;4.95;;;3.22;;
8104;SDS011;4095;48.942;9.104;2023-07-28T13:26:02;3.42;;;3.13;;
8104;SDS011;4095;48.942;9.104;2023-07-28T13:28:30;3.78;;;3.40;;
8104;SDS011;4095;48.942;9.104;2023-07-28T13:30:56;3.38;;;3.03;;
8104;SDS011;4095;48.942;9.104;2023-07-28T13:33:21;4.75;;;3.28;;
8104;SDS011;4095;48.942;9.104;2023-07-28T13:35:47;3.97;;;3.60;;
8104;SDS011;4095;48.942;9.104;2023-07-28T13:38:13;4.10;;;3.70;;
8104;SDS011;4095;48.942;9.104;2023-07-28T13:40:39;4.45;;;3.70;;
8104;SDS011;4095;48.942;9.104;2023-07-28T13:43:04;4.03;;;3.63;;
8104;SDS011;4095;48.942;9.104;2023-07-28T13:45:30;3.88;;;3.50;;
8104;SDS011;4095;48.942;9.104;2023-07-28T13:47:56;4.97;;;3.97;;
8104;SDS011;4095;48.942;9.104;2023-07-28T13:50:21;3.92;;;3.15;;
8104;SDS011;4095;48.942;9.104;2023-07-28T13:52:47;3.77;;;3.40;;
8104;SDS011;4095;48.942;9.104;2023-07-28T13:55:13;5.43;;;3.33;;
8104;SDS011;4095;48.942;9.104;2023-07-28T13:57:39;4.65;;;3.80;;
8104;SDS011;4095;48.942;9.104;2023-07-28T14:00:05;3.85;;;3.53;;
8104;SDS011;4095;48.942;9.104;2023-07-28T14:02:37;4.45;;;3.38;;
8104;SDS011;4095;48.942;9.104;2023-07-28T14:05:04;4.35;;;3.95;;
8104;SDS011;4095;48.942;9.104;2023-07-28T14:07:31;5.23;;;3.87;;
8104;SDS011;4095;48.942;9.104;2023-07-28T14:09:57;4.93;;;3.67;;
8104;SDS011;4095;48.942;9.104;2023-07-28T14:12:22;5.35;;;4.38;;
8104;SDS011;4095;48.942;9.104;2023-07-28T14:14:48;4.37;;;3.97;;
8104;SDS011;4095;48.942;9.104;2023-07-28T14:17:16;6.67;;;4.27;;
8104;SDS011;4095;48.942;9.104;2023-07-28T14:19:42;4.77;;;4.27;;
8104;SDS011;4095;48.942;9.104;2023-07-28T14:22:08;5.63;;;3.90;;
8104;SDS011;4095;48.942;9.104;2023-07-28T14:24:34;4.60;;;4.20;;
8104;SDS011;4095;48.942;9.104;2023-07-28T14:26:59;4.93;;;4.07;;
8104;SDS011;4095;48.942;9.104;2023-07-28T14:29:25;5.03;;;4.27;;
8104;SDS011;4095;48.942;9.104;2023-07-28T14:31:51;5.20;;;4.70;;
8104;SDS011;4095;48.942;9.104;2023-07-28T14:34:17;5.00;;;4.50;;
8104;SDS011;4095;48.942;9.104;2023-07-28T14:36:43;5.60;;;5.00;;
8104;SDS011;4095;48.942;9.104;2023-07-28T14:39:08;5.57;;;4.60;;
8104;SDS011;4095;48.942;9.104;2023-07-28T14:41:35;4.73;;;4.10;;
8104;SDS011;4095;48.942;9.104;2023-07-28T14:44:00;4.87;;;4.37;;
8104;SDS011;4095;48.942;9.104;2023-07-28T14:46:27;6.00;;;3.97;;
8104;SDS011;4095;48.942;9.104;2023-07-28T14:48:53;4.87;;;4.40;;
8104;SDS011;4095;48.942;9.104;2023-07-28T14:51:19;5.47;;;4.30;;
8104;SDS011;4095;48.942;9.104;2023-07-28T14:53:45;4.67;;;4.27;;
8104;SDS011;4095;48.942;9.104;2023-07-28T14:56:12;6.53;;;4.60;;
8104;SDS011;4095;48.942;9.104;2023-07-28T14:58:38;5.00;;;4.50;;
8104;SDS011;4095;48.942;9.104;2023-07-28T15:01:05;5.03;;;4.50;;
8104;SDS011;4095;48.942;9.104;2023-07-28T15:03:32;4.90;;;4.50;;
8104;SDS011;4095;48.942;9.104;2023-07-28T15:06:02;5.77;;;4.60;;
8104;SDS011;4095;48.942;9.104;2023-07-28T15:08:28;5.00;;;4.60;;
8104;SDS011;4095;48.942;9.104;2023-07-28T15:10:54;5.00;;;4.53;;
8104;SDS011;4095;48.942;9.104;2023-07-28T15:13:20;4.90;;;4.17;;
8104;SDS011;4095;48.942;9.104;2023-07-28T15:15:46;5.10;;;4.60;;
8104;SDS011;4095;48.942;9.104;2023-07-28T15:18:12;6.37;;;4.37;;
8104;SDS011;4095;48.942;9.104;2023-07-28T15:20:39;6.27;;;4.60;;
8104;SDS011;4095;48.942;9.104;2023-07-28T15:23:05;5.93;;;4.97;;
8104;SDS011;4095;48.942;9.104;2023-07-28T15:25:31;7.63;;;4.60;;
8104;SDS011;4095;48.942;9.104;2023-07-28T15:27:56;6.03;;;4.13;;
8104;SDS011;4095;48.942;9.104;2023-07-28T15:30:22;5.23;;;4.73;;
8104;SDS011;4095;48.942;9.104;2023-07-28T15:32:48;5.30;;;4.80;;
8104;SDS011;4095;48.942;9.104;2023-07-28T15:35:14;5.47;;;4.60;;
8104;SDS011;4095;48.942;9.104;2023-07-28T15:37:39;5.20;;;4.70;;